sensor_id;sensor_type;location;lat;lon;timestamp;pressure;altitude;pressure_sealevel;temperature;humidity
40994;BME280;26722;43.212;27.932;2023-10-31T00:01:10;65216.59;;;-146.72;100.00
40994;BME280;26722;43.212;27.932;2023-10-31T00:03:36;65282.25;;;-146.72;100.00
40994;BME280;26722;43.212;27.932;2023-10-31T00:06:02;65542.72;;;-146.72;100.00
40994;BME280;26722;43.212;27.932;2023-10-31T00:08:27;65261.06;;;-146.72;100.00
40994;BME280;26722;43.212;27.932;2023-10-31T00:10:53;65254.72;;;-146.72;100.00
40994;BME280;26722;43.212;27.932;2023-10-31T00:13:18;65265.31;;;-146.72;100.00
40994;BME280;26722;43.212;27.932;2023-10-31T00:15:43;65294.94;;;-146.72;100.00
40994;BME280;26722;43.212;27.932;2023-10-31T00:18:09;65210.25;;;-146.72;100.00
40994;BME280;26722;43.212;27.932;2023-10-31T00:20:35;65231.41;;;-146.72;100.00
40994;BME280;26722;43.212;27.932;2023-10-31T00:23:00;65254.72;;;-146.72;100.00
40994;BME280;26722;43.212;27.932;2023-10-31T00:25:25;65278.00;;;-146.72;100.00
40994;BME280;26722;43.212;27.932;2023-10-31T00:27:51;65299.19;;;-146.72;100.00
40994;BME280;26722;43.212;27.932;2023-10-31T00:30:16;65294.94;;;-146.72;100.00
40994;BME280;26722;43.212;27.932;2023-10-31T00:32:42;65256.84;;;-146.72;100.00
40994;BME280;26722;43.212;27.932;2023-10-31T00:35:07;65286.47;;;-146.72;100.00
40994;BME280;26722;43.212;27.932;2023-10-31T00:37:33;65282.25;;;-146.72;100.00
40994;BME280;26722;43.212;27.932;2023-10-31T00:39:58;65303.41;;;-146.72;100.00
40994;BME280;26722;43.212;27.932;2023-10-31T00:42:24;65294.94;;;-146.72;100.00
40994;BME280;26722;43.212;27.932;2023-10-31T00:44:49;65341.53;;;-146.72;100.00
40994;BME280;26722;43.212;27.932;2023-10-31T00:47:15;65510.94;;;-146.72;100.00
40994;BME280;26722;43.212;27.932;2023-10-31T00:49:41;65261.06;;;-146.72;100.00
40994;BME280;26722;43.212;27.932;2023-10-31T00:52:06;65318.25;;;-146.72;100.00
40994;BME280;26722;43.212;27.932;2023-10-31T00:54:32;65330.94;;;-146.72;100.00
40994;BME280;26722;43.212;27.932;2023-10-31T00:56:57;65375.41;;;-146.72;100.00
40994;BME280;26722;43.212;27.932;2023-10-31T00:59:23;65460.13;;;-146.72;100.00
40994;BME280;26722;43.212;27.932;2023-10-31T01:01:49;65443.19;;;-146.72;100.00
40994;BME280;26722;43.212;27.932;2023-10-31T01:04:14;65455.88;;;-146.72;100.00
40994;BME280;26722;43.212;27.932;2023-10-31T01:06:41;65470.72;;;-146.72;100.00
40994;BME280;26722;43.212;27.932;2023-10-31T01:09:06;65477.06;;;-146.72;100.00
40994;BME280;26722;43.212;27.932;2023-10-31T01:11:32;65474.94;;;-146.72;100.00
40994;BME280;26722;43.212;27.932;2023-10-31T01:13:57;65434.72;;;-146.72;100.00
40994;BME280;26722;43.212;27.932;2023-10-31T01:16:23;65426.25;;;-146.72;100.00
40994;BME280;26722;43.212;27.932;2023-10-31T01:18:48;65390.25;;;-146.72;100.00
40994;BME280;26722;43.212;27.932;2023-10-31T01:21:14;65381.78;;;-146.72;100.00
40994;BME280;26722;43.212;27.932;2023-10-31T01:23:39;65354.25;;;-146.72;100.00
40994;BME280;26722;43.212;27.932;2023-10-31T01:26:04;65356.34;;;-146.72;100.00
40994;BME280;26722;43.212;27.932;2023-10-31T01:28:30;65339.41;;;-146.72;100.00
40994;BME280;26722;43.212;27.932;2023-10-31T01:30:55;65350.00;;;-146.72;100.00
40994;BME280;26722;43.212;27.932;2023-10-31T01:33:21;65362.72;;;-146.72;100.00
40994;BME280;26722;43.212;27.932;2023-10-31T01:35:46;65358.47;;;-146.72;100.00
40994;BME280;26722;43.212;27.932;2023-10-31T01:38:12;65358.47;;;-146.72;100.00
40994;BME280;26722;43.212;27.932;2023-10-31T01:40:37;65354.25;;;-146.72;100.00
40994;BME280;26722;43.212;27.932;2023-10-31T01:43:03;65400.81;;;-146.72;100.00
40994;BME280;26722;43.212;27.932;2023-10-31T01:45:28;65409.31;;;-146.72;100.00
40994;BME280;26722;43.212;27.932;2023-10-31T01:47:53;65366.94;;;-146.72;100.00
40994;BME280;26722;43.212;27.932;2023-10-31T01:50:19;65405.06;;;-146.72;100.00
40994;BME280;26722;43.212;27.932;2023-10-31T01:52:45;65405.06;;;-146.72;100.00
40994;BME280;26722;43.212;27.932;2023-10-31T01:55:11;65445.31;;;-146.72;100.00
40994;BME280;26722;43.212;27.932;2023-10-31T01:57:37;65438.94;;;-146.72;100.00
40994;BME280;26722;43.212;27.932;2023-10-31T02:00:04;65417.78;;;-146.72;100.00
40994;BME280;26722;43.212;27.932;2023-10-31T02:02:32;65438.94;;;-146.72;100.00
40994;BME280;26722;43.212;27.932;2023-10-31T02:04:59;65409.31;;;-146.72;100.00
40994;BME280;26722;43.212;27.932;2023-10-31T02:07:24;65396.59;;;-146.72;100.00
40994;BME280;26722;43.212;27.932;2023-10-31T02:09:50;65413.53;;;-146.72;100.00
40994;BME280;26722;43.212;27.932;2023-10-31T02:12:36;65394.47;;;-146.72;100.00
40994;BME280;26722;43.212;27.932;2023-10-31T02:15:03;65377.53;;;-146.72;100.00
40994;BME280;26722;43.212;27.932;2023-10-31T02:17:29;65405.06;;;-146.72;100.00
40994;BME280;26722;43.212;27.932;2023-10-31T02:19:54;65405.06;;;-146.72;100.00
40994;BME280;26722;43.212;27.932;2023-10-31T02:22:20;65417.78;;;-146.72;100.00
40994;BME280;26722;43.212;27.932;2023-10-31T02:24:45;65468.59;;;-146.72;100.00
40994;BME280;26722;43.212;27.932;2023-10-31T02:27:11;65498.25;;;-146.72;100.00
40994;BME280;26722;43.212;27.932;2023-10-31T02:29:36;65502.47;;;-146.72;100.00
40994;BME280;26722;43.212;27.932;2023-10-31T02:32:02;65455.88;;;-146.72;100.00
40994;BME280;26722;43.212;27.932;2023-10-31T02:34:27;65460.13;;;-146.72;100.00
40994;BME280;26722;43.212;27.932;2023-10-31T02:36:53;65487.66;;;-146.72;100.00
40994;BME280;26722;43.212;27.932;2023-10-31T02:39:18;65481.31;;;-146.72;100.00
40994;BME280;26722;43.212;27.932;2023-10-31T02:41:44;65527.88;;;-146.72;100.00
40994;BME280;26722;43.212;27.932;2023-10-31T02:44:09;65599.91;;;-146.72;100.00
40994;BME280;26722;43.212;27.932;2023-10-31T02:46:38;65731.19;;;-146.72;100.00
40994;BME280;26722;43.212;27.932;2023-10-31T02:49:03;65839.22;;;-146.72;100.00
40994;BME280;26722;43.212;27.932;2023-10-31T02:51:29;66004.41;;;-146.72;100.00
40994;BME280;26722;43.212;27.932;2023-10-31T02:53:54;66108.19;;;-146.72;100.00
40994;BME280;26722;43.212;27.932;2023-10-31T02:56:20;65989.59;;;-146.72;100.00
40994;BME280;26722;43.212;27.932;2023-10-31T02:58:45;65938.75;;;-146.72;100.00
40994;BME280;26722;43.212;27.932;2023-10-31T03:01:11;65851.91;;;-146.72;100.00
40994;BME280;26722;43.212;27.932;2023-10-31T03:03:36;65705.78;;;-146.72;100.00
40994;BME280;26722;43.212;27.932;2023-10-31T03:06:02;65648.59;;;-146.72;100.00
40994;BME280;26722;43.212;27.932;2023-10-31T03:08:27;65705.78;;;-146.72;100.00
40994;BME280;26722;43.212;27.932;2023-10-31T03:10:53;65710.03;;;-146.72;100.00
40994;BME280;26722;43.212;27.932;2023-10-31T03:13:18;65625.31;;;-146.72;100.00
40994;BME280;26722;43.212;27.932;2023-10-31T03:15:45;65631.66;;;-146.72;100.00
40994;BME280;26722;43.212;27.932;2023-10-31T03:18:11;65540.59;;;-146.72;100.00
40994;BME280;26722;43.212;27.932;2023-10-31T03:20:36;65591.44;;;-146.72;100.00
40994;BME280;26722;43.212;27.932;2023-10-31T03:23:02;65540.59;;;-146.72;100.00
40994;BME280;26722;43.212;27.932;2023-10-31T03:25:27;65536.38;;;-146.72;100.00
40994;BME280;26722;43.212;27.932;2023-10-31T03:27:53;65510.94;;;-146.72;100.00
40994;BME280;26722;43.212;27.932;2023-10-31T03:30:18;65496.13;;;-146.72;100.00
40994;BME280;26722;43.212;27.932;2023-10-31T03:32:44;65438.94;;;-146.72;100.00
40994;BME280;26722;43.212;27.932;2023-10-31T03:35:09;65443.19;;;-146.72;100.00
40994;BME280;26722;43.212;27.932;2023-10-31T03:37:35;65388.13;;;-146.72;100.00
40994;BME280;26722;43.212;27.932;2023-10-31T03:40:01;65377.53;;;-146.72;100.00
40994;BME280;26722;43.212;27.932;2023-10-31T03:42:26;65383.88;;;-146.72;100.00
40994;BME280;26722;43.212;27.932;2023-10-31T03:44:52;65623.19;;;-146.72;100.00
40994;BME280;26722;43.212;27.932;2023-10-31T03:47:17;65326.72;;;-146.72;100.00
40994;BME280;26722;43.212;27.932;2023-10-31T03:49:43;65311.88;;;-146.72;100.00
40994;BME280;26722;43.212;27.932;2023-10-31T03:52:08;65303.41;;;-146.72;100.00
40994;BME280;26722;43.212;27.932;2023-10-31T03:54:33;65256.84;;;-146.72;100.00
40994;BME280;26722;43.212;27.932;2023-10-31T03:56:59;65466.47;;;-146.72;100.00
40994;BME280;26722;43.212;27.932;2023-10-31T03:59:24;65350.00;;;-146.72;100.00
40994;BME280;26722;43.212;27.932;2023-10-31T04:01:50;65364.81;;;-146.72;100.00
40994;BME280;26722;43.212;27.932;2023-10-31T04:04:15;65286.47;;;-146.72;100.00
40994;BME280;26722;43.212;27.932;2023-10-31T04:06:41;65326.72;;;-146.72;100.00
40994;BME280;26722;43.212;27.932;2023-10-31T04:09:07;65305.53;;;-146.72;100.00
40994;BME280;26722;43.212;27.932;2023-10-31T04:11:33;65288.59;;;-146.72;100.00
40994;BME280;26722;43.212;27.932;2023-10-31T04:13:58;65252.59;;;-146.72;100.00
40994;BME280;26722;43.212;27.932;2023-10-31T04:16:23;65294.94;;;-146.72;100.00
40994;BME280;26722;43.212;27.932;2023-10-31T04:18:49;65280.13;;;-146.72;100.00
40994;BME280;26722;43.212;27.932;2023-10-31T04:21:14;65278.00;;;-146.72;100.00
40994;BME280;26722;43.212;27.932;2023-10-31T04:23:40;65269.53;;;-146.72;100.00
40994;BME280;26722;43.212;27.932;2023-10-31T04:26:05;65278.00;;;-146.72;100.00
40994;BME280;26722;43.212;27.932;2023-10-31T04:28:31;65244.13;;;-146.72;100.00
40994;BME280;26722;43.212;27.932;2023-10-31T04:30:56;65328.81;;;-146.72;100.00
40994;BME280;26722;43.212;27.932;2023-10-31T04:33:21;65339.41;;;-146.72;100.00
40994;BME280;26722;43.212;27.932;2023-10-31T04:35:47;65286.47;;;-146.72;100.00
40994;BME280;26722;43.212;27.932;2023-10-31T04:38:12;65330.94;;;-146.72;100.00
40994;BME280;26722;43.212;27.932;2023-10-31T04:40:38;65318.25;;;-146.72;100.00
40994;BME280;26722;43.212;27.932;2023-10-31T04:43:03;65294.94;;;-146.72;100.00
40994;BME280;26722;43.212;27.932;2023-10-31T04:45:29;65263.19;;;-146.72;100.00
40994;BME280;26722;43.212;27.932;2023-10-31T04:47:54;65282.25;;;-146.72;100.00
40994;BME280;26722;43.212;27.932;2023-10-31T04:50:20;65252.59;;;-146.72;100.00
40994;BME280;26722;43.212;27.932;2023-10-31T04:52:45;65269.53;;;-146.72;100.00
40994;BME280;26722;43.212;27.932;2023-10-31T04:55:10;65239.88;;;-146.72;100.00
40994;BME280;26722;43.212;27.932;2023-10-31T04:57:36;65282.25;;;-146.72;100.00
40994;BME280;26722;43.212;27.932;2023-10-31T05:00:01;65246.25;;;-146.72;100.00
40994;BME280;26722;43.212;27.932;2023-10-31T05:02:29;65239.88;;;-146.72;100.00
40994;BME280;26722;43.212;27.932;2023-10-31T05:04:54;65252.59;;;-146.72;100.00
40994;BME280;26722;43.212;27.932;2023-10-31T05:07:20;65218.72;;;-146.72;100.00
40994;BME280;26722;43.212;27.932;2023-10-31T05:09:45;65197.53;;;-146.72;100.00
40994;BME280;26722;43.212;27.932;2023-10-31T05:12:11;65214.47;;;-146.72;100.00
40994;BME280;26722;43.212;27.932;2023-10-31T05:14:36;65170.00;;;-146.72;100.00
40994;BME280;26722;43.212;27.932;2023-10-31T05:17:02;65214.47;;;-146.72;100.00
40994;BME280;26722;43.212;27.932;2023-10-31T05:19:27;65206.00;;;-146.72;100.00
40994;BME280;26722;43.212;27.932;2023-10-31T05:21:53;65256.84;;;-146.72;100.00
40994;BME280;26722;43.212;27.932;2023-10-31T05:24:18;65206.00;;;-146.72;100.00
40994;BME280;26722;43.212;27.932;2023-10-31T05:26:44;65214.47;;;-146.72;100.00
40994;BME280;26722;43.212;27.932;2023-10-31T05:29:11;65193.31;;;-146.72;100.00
40994;BME280;26722;43.212;27.932;2023-10-31T05:31:36;65206.00;;;-146.72;100.00
40994;BME280;26722;43.212;27.932;2023-10-31T05:34:02;65201.78;;;-146.72;100.00
40994;BME280;26722;43.212;27.932;2023-10-31T05:36:29;65184.84;;;-146.72;100.00
40994;BME280;26722;43.212;27.932;2023-10-31T05:38:54;65201.78;;;-146.72;100.00
40994;BME280;26722;43.212;27.932;2023-10-31T05:41:20;65184.84;;;-146.72;100.00
40994;BME280;26722;43.212;27.932;2023-10-31T05:43:46;65172.13;;;-146.72;100.00
40994;BME280;26722;43.212;27.932;2023-10-31T05:46:11;65167.91;;;-146.72;100.00
40994;BME280;26722;43.212;27.932;2023-10-31T05:48:44;65131.91;;;-146.72;100.00
40994;BME280;26722;43.212;27.932;2023-10-31T05:51:13;65085.31;;;-146.72;100.00
40994;BME280;26722;43.212;27.932;2023-10-31T05:53:40;65142.47;;;-146.72;100.00
40994;BME280;26722;43.212;27.932;2023-10-31T05:56:06;65129.78;;;-146.72;100.00
40994;BME280;26722;43.212;27.932;2023-10-31T05:58:32;65138.25;;;-146.72;100.00
40994;BME280;26722;43.212;27.932;2023-10-31T06:00:58;65112.84;;;-146.72;100.00
40994;BME280;26722;43.212;27.932;2023-10-31T06:03:23;65134.00;;;-146.72;100.00
40994;BME280;26722;43.212;27.932;2023-10-31T06:05:49;65121.31;;;-146.72;100.00
40994;BME280;26722;43.212;27.932;2023-10-31T06:08:14;65114.97;;;-146.72;100.00
40994;BME280;26722;43.212;27.932;2023-10-31T06:10:41;65129.78;;;-146.72;100.00
40994;BME280;26722;43.212;27.932;2023-10-31T06:13:06;65098.00;;;-146.72;100.00
40994;BME280;26722;43.212;27.932;2023-10-31T06:15:32;65100.13;;;-146.72;100.00
40994;BME280;26722;43.212;27.932;2023-10-31T06:17:57;65108.59;;;-146.72;100.00
40994;BME280;26722;43.212;27.932;2023-10-31T06:20:23;65108.59;;;-146.72;100.00
40994;BME280;26722;43.212;27.932;2023-10-31T06:22:49;65119.19;;;-146.72;100.00
40994;BME280;26722;43.212;27.932;2023-10-31T06:25:14;65085.31;;;-146.72;100.00
40994;BME280;26722;43.212;27.932;2023-10-31T06:27:39;65087.44;;;-146.72;100.00
40994;BME280;26722;43.212;27.932;2023-10-31T06:30:05;65129.78;;;-146.72;100.00
40994;BME280;26722;43.212;27.932;2023-10-31T06:32:31;65032.38;;;-146.72;100.00
40994;BME280;26722;43.212;27.932;2023-10-31T06:34:56;65091.66;;;-146.72;100.00
40994;BME280;26722;43.212;27.932;2023-10-31T06:37:22;65106.50;;;-146.72;99.96
40994;BME280;26722;43.212;27.932;2023-10-31T06:39:47;65093.78;;;-146.72;99.24
40994;BME280;26722;43.212;27.932;2023-10-31T06:42:13;65112.84;;;-146.72;98.85
40994;BME280;26722;43.212;27.932;2023-10-31T06:44:38;65129.78;;;-146.72;98.21
40994;BME280;26722;43.212;27.932;2023-10-31T06:47:04;65072.59;;;-146.72;97.92
40994;BME280;26722;43.212;27.932;2023-10-31T06:49:29;65114.97;;;-146.72;97.82
40994;BME280;26722;43.212;27.932;2023-10-31T06:51:55;65062.03;;;-146.72;97.36
40994;BME280;26722;43.212;27.932;2023-10-31T06:54:20;65095.91;;;-146.72;96.85
40994;BME280;26722;43.212;27.932;2023-10-31T06:56:47;65089.53;;;-146.72;97.17
40994;BME280;26722;43.212;27.932;2023-10-31T06:59:13;65104.38;;;-146.72;96.83
40994;BME280;26722;43.212;27.932;2023-10-31T07:01:39;65083.19;;;-146.72;97.07
40994;BME280;26722;43.212;27.932;2023-10-31T07:04:05;65102.25;;;-146.72;97.00
40994;BME280;26722;43.212;27.932;2023-10-31T07:06:30;65055.66;;;-146.72;95.80
40994;BME280;26722;43.212;27.932;2023-10-31T07:08:55;65110.72;;;-146.72;95.16
40994;BME280;26722;43.212;27.932;2023-10-31T07:11:22;65089.53;;;-146.72;94.39
40994;BME280;26722;43.212;27.932;2023-10-31T07:13:48;65087.44;;;-146.72;93.82
40994;BME280;26722;43.212;27.932;2023-10-31T07:16:13;65117.06;;;-146.72;93.67
40994;BME280;26722;43.212;27.932;2023-10-31T07:18:39;65112.84;;;-146.72;93.78
40994;BME280;26722;43.212;27.932;2023-10-31T07:21:04;65062.03;;;-146.72;94.03
40994;BME280;26722;43.212;27.932;2023-10-31T07:23:30;65110.72;;;-146.72;93.65
40994;BME280;26722;43.212;27.932;2023-10-31T07:25:55;65125.53;;;-146.72;93.72
40994;BME280;26722;43.212;27.932;2023-10-31T07:28:21;65104.38;;;-146.72;92.87
40994;BME280;26722;43.212;27.932;2023-10-31T07:30:46;65110.72;;;-146.72;92.92
40994;BME280;26722;43.212;27.932;2023-10-31T07:33:12;65102.25;;;-146.72;92.49
40994;BME280;26722;43.212;27.932;2023-10-31T07:35:37;65106.50;;;-146.72;92.00
40994;BME280;26722;43.212;27.932;2023-10-31T07:38:02;65095.91;;;-146.72;91.56
40994;BME280;26722;43.212;27.932;2023-10-31T07:40:28;65066.25;;;-146.72;90.79
40994;BME280;26722;43.212;27.932;2023-10-31T07:42:53;65089.53;;;-146.72;90.83
40994;BME280;26722;43.212;27.932;2023-10-31T07:45:19;65102.25;;;-146.72;90.70
40994;BME280;26722;43.212;27.932;2023-10-31T07:47:45;65095.91;;;-146.72;90.10
40994;BME280;26722;43.212;27.932;2023-10-31T07:50:10;65053.56;;;-146.72;89.02
40994;BME280;26722;43.212;27.932;2023-10-31T07:52:36;65089.53;;;-146.72;88.44
40994;BME280;26722;43.212;27.932;2023-10-31T07:55:01;65100.13;;;-146.72;88.20
40994;BME280;26722;43.212;27.932;2023-10-31T07:57:26;65108.59;;;-146.72;88.29
40994;BME280;26722;43.212;27.932;2023-10-31T07:59:52;65066.25;;;-146.72;88.16
40994;BME280;26722;43.212;27.932;2023-10-31T08:02:17;65078.97;;;-146.72;87.99
40994;BME280;26722;43.212;27.932;2023-10-31T08:04:43;65112.84;;;-146.72;87.62
40994;BME280;26722;43.212;27.932;2023-10-31T08:07:08;65068.38;;;-146.72;87.59
40994;BME280;26722;43.212;27.932;2023-10-31T08:09:34;65121.31;;;-146.72;88.11
40994;BME280;26722;43.212;27.932;2023-10-31T08:11:59;65104.38;;;-146.72;88.08
40994;BME280;26722;43.212;27.932;2023-10-31T08:14:25;65112.84;;;-146.72;87.06
40994;BME280;26722;43.212;27.932;2023-10-31T08:16:50;65112.84;;;-146.72;86.78
40994;BME280;26722;43.212;27.932;2023-10-31T08:19:15;65106.50;;;-146.72;86.21
40994;BME280;26722;43.212;27.932;2023-10-31T08:21:41;65140.38;;;-146.72;86.39
40994;BME280;26722;43.212;27.932;2023-10-31T08:24:07;65150.97;;;-146.72;86.77
40994;BME280;26722;43.212;27.932;2023-10-31T08:26:32;65155.19;;;-146.72;86.01
40994;BME280;26722;43.212;27.932;2023-10-31T08:28:58;65153.06;;;-146.72;85.38
40994;BME280;26722;43.212;27.932;2023-10-31T08:31:24;65125.53;;;-146.72;85.54
40994;BME280;26722;43.212;27.932;2023-10-31T08:33:49;65112.84;;;-146.72;85.23
40994;BME280;26722;43.212;27.932;2023-10-31T08:36:15;65153.06;;;-146.72;84.45
40994;BME280;26722;43.212;27.932;2023-10-31T08:38:40;65239.88;;;-146.72;85.47
40994;BME280;26722;43.212;27.932;2023-10-31T08:41:06;65178.47;;;-146.72;86.08
40994;BME280;26722;43.212;27.932;2023-10-31T08:43:32;65193.31;;;-146.72;86.10
40994;BME280;26722;43.212;27.932;2023-10-31T08:45:57;65163.66;;;-146.72;86.83
40994;BME280;26722;43.212;27.932;2023-10-31T08:48:22;65176.38;;;-146.72;87.65
40994;BME280;26722;43.212;27.932;2023-10-31T08:50:48;65214.47;;;-146.72;88.24
40994;BME280;26722;43.212;27.932;2023-10-31T08:53:14;65195.41;;;-146.72;88.42
40994;BME280;26722;43.212;27.932;2023-10-31T08:55:40;65157.31;;;-146.72;88.06
40994;BME280;26722;43.212;27.932;2023-10-31T08:58:10;65123.44;;;-146.72;88.69
40994;BME280;26722;43.212;27.932;2023-10-31T09:00:36;65161.53;;;-146.72;88.87
40994;BME280;26722;43.212;27.932;2023-10-31T09:03:01;65167.91;;;-146.72;88.55
40994;BME280;26722;43.212;27.932;2023-10-31T09:05:26;65167.91;;;-146.72;88.24
40994;BME280;26722;43.212;27.932;2023-10-31T09:07:52;65172.13;;;-146.72;88.37
40994;BME280;26722;43.212;27.932;2023-10-31T09:10:18;65163.66;;;-146.72;88.21
40994;BME280;26722;43.212;27.932;2023-10-31T09:12:43;65206.00;;;-146.72;88.31
40994;BME280;26722;43.212;27.932;2023-10-31T09:15:09;65170.00;;;-146.72;88.55
40994;BME280;26722;43.212;27.932;2023-10-31T09:17:34;65138.25;;;-146.72;88.12
40994;BME280;26722;43.212;27.932;2023-10-31T09:20:00;65178.47;;;-146.72;88.51
40994;BME280;26722;43.212;27.932;2023-10-31T09:22:25;65167.91;;;-146.72;88.05
40994;BME280;26722;43.212;27.932;2023-10-31T09:24:51;65172.13;;;-146.72;87.19
40994;BME280;26722;43.212;27.932;2023-10-31T09:27:16;65212.38;;;-146.72;86.41
40994;BME280;26722;43.212;27.932;2023-10-31T09:29:41;65159.44;;;-146.72;86.96
40994;BME280;26722;43.212;27.932;2023-10-31T09:32:07;65197.53;;;-146.72;87.33
40994;BME280;26722;43.212;27.932;2023-10-31T09:34:32;65150.97;;;-146.72;87.93
40994;BME280;26722;43.212;27.932;2023-10-31T09:36:58;65184.84;;;-146.72;87.66
40994;BME280;26722;43.212;27.932;2023-10-31T09:39:24;65189.06;;;-146.72;88.32
40994;BME280;26722;43.212;27.932;2023-10-31T09:41:49;65193.31;;;-146.72;88.44
40994;BME280;26722;43.212;27.932;2023-10-31T09:44:15;65167.91;;;-146.72;88.90
40994;BME280;26722;43.212;27.932;2023-10-31T09:46:40;65163.66;;;-146.72;88.12
40994;BME280;26722;43.212;27.932;2023-10-31T09:49:07;65178.47;;;-146.72;88.27
40994;BME280;26722;43.212;27.932;2023-10-31T09:51:33;65210.25;;;-146.72;88.61
40994;BME280;26722;43.212;27.932;2023-10-31T09:53:59;65197.53;;;-146.72;88.48
40994;BME280;26722;43.212;27.932;2023-10-31T09:56:27;65167.91;;;-146.72;88.37
40994;BME280;26722;43.212;27.932;2023-10-31T09:59:03;65170.00;;;-146.72;88.73
40994;BME280;26722;43.212;27.932;2023-10-31T10:01:29;65201.78;;;-146.72;88.80
40994;BME280;26722;43.212;27.932;2023-10-31T10:03:55;65229.31;;;-146.72;89.48
40994;BME280;26722;43.212;27.932;2023-10-31T10:06:21;65174.25;;;-146.72;89.79
40994;BME280;26722;43.212;27.932;2023-10-31T10:08:49;65186.94;;;-146.72;89.81
40994;BME280;26722;43.212;27.932;2023-10-31T10:11:14;65193.31;;;-146.72;89.53
40994;BME280;26722;43.212;27.932;2023-10-31T10:13:40;65176.38;;;-146.72;89.21
40994;BME280;26722;43.212;27.932;2023-10-31T10:16:05;65197.53;;;-146.72;88.87
40994;BME280;26722;43.212;27.932;2023-10-31T10:18:32;65193.31;;;-146.72;89.33
40994;BME280;26722;43.212;27.932;2023-10-31T10:21:03;65210.25;;;-146.72;89.80
40994;BME280;26722;43.212;27.932;2023-10-31T10:23:30;65176.38;;;-146.72;90.15
40994;BME280;26722;43.212;27.932;2023-10-31T10:25:57;65206.00;;;-146.72;90.56
40994;BME280;26722;43.212;27.932;2023-10-31T10:28:23;65214.47;;;-146.72;90.90
40994;BME280;26722;43.212;27.932;2023-10-31T10:30:53;65180.59;;;-146.72;90.32
40994;BME280;26722;43.212;27.932;2023-10-31T10:33:19;65180.59;;;-146.72;89.83
40994;BME280;26722;43.212;27.932;2023-10-31T10:35:45;65191.19;;;-146.72;90.28
40994;BME280;26722;43.212;27.932;2023-10-31T10:38:19;65189.06;;;-146.72;90.33
40994;BME280;26722;43.212;27.932;2023-10-31T10:40:46;65195.41;;;-146.72;89.63
40994;BME280;26722;43.212;27.932;2023-10-31T10:43:31;65159.44;;;-146.72;89.36
40994;BME280;26722;43.212;27.932;2023-10-31T10:46:02;65176.38;;;-146.72;89.30
40994;BME280;26722;43.212;27.932;2023-10-31T10:48:30;65193.31;;;-146.72;89.78
40994;BME280;26722;43.212;27.932;2023-10-31T10:51:05;65150.97;;;-146.72;89.17
40994;BME280;26722;43.212;27.932;2023-10-31T10:53:42;65212.38;;;-146.72;89.16
40994;BME280;26722;43.212;27.932;2023-10-31T10:56:16;65222.94;;;-146.72;89.10
40994;BME280;26722;43.212;27.932;2023-10-31T10:59:03;65212.38;;;-146.72;89.65
40994;BME280;26722;43.212;27.932;2023-10-31T11:01:33;65212.38;;;-146.72;89.63
40994;BME280;26722;43.212;27.932;2023-10-31T11:04:00;65206.00;;;-146.72;90.48
40994;BME280;26722;43.212;27.932;2023-10-31T11:06:26;65174.25;;;-146.72;90.69
40994;BME280;26722;43.212;27.932;2023-10-31T11:08:53;65201.78;;;-146.72;91.75
40994;BME280;26722;43.212;27.932;2023-10-31T11:11:19;65208.13;;;-146.72;92.03
40994;BME280;26722;43.212;27.932;2023-10-31T11:13:46;65174.25;;;-146.72;91.89
40994;BME280;26722;43.212;27.932;2023-10-31T11:16:17;65225.06;;;-146.72;91.67
40994;BME280;26722;43.212;27.932;2023-10-31T11:18:46;65203.91;;;-146.72;91.29
40994;BME280;26722;43.212;27.932;2023-10-31T11:21:12;65233.53;;;-146.72;91.29
40994;BME280;26722;43.212;27.932;2023-10-31T11:23:37;65233.53;;;-146.72;90.54
40994;BME280;26722;43.212;27.932;2023-10-31T11:26:07;65218.72;;;-146.72;91.10
40994;BME280;26722;43.212;27.932;2023-10-31T11:28:33;65197.53;;;-146.72;91.14
40994;BME280;26722;43.212;27.932;2023-10-31T11:30:59;65199.66;;;-146.72;91.12
40994;BME280;26722;43.212;27.932;2023-10-31T11:33:27;65193.31;;;-146.72;90.90
40994;BME280;26722;43.212;27.932;2023-10-31T11:36:03;65167.91;;;-146.72;89.97
40994;BME280;26722;43.212;27.932;2023-10-31T11:38:35;65206.00;;;-146.72;88.40
40994;BME280;26722;43.212;27.932;2023-10-31T11:41:02;65210.25;;;-146.72;87.70
40994;BME280;26722;43.212;27.932;2023-10-31T11:46:05;65174.25;;;-146.72;88.63
40994;BME280;26722;43.212;27.932;2023-10-31T11:48:45;65222.94;;;-146.72;87.86
40994;BME280;26722;43.212;27.932;2023-10-31T11:51:13;65210.25;;;-146.72;87.29
40994;BME280;26722;43.212;27.932;2023-10-31T11:53:39;65189.06;;;-146.72;86.41
40994;BME280;26722;43.212;27.932;2023-10-31T11:56:05;65216.59;;;-146.72;86.06
40994;BME280;26722;43.212;27.932;2023-10-31T11:58:30;65229.31;;;-146.72;86.02
40994;BME280;26722;43.212;27.932;2023-10-31T12:01:06;65210.25;;;-146.72;86.77
40994;BME280;26722;43.212;27.932;2023-10-31T12:03:39;65197.53;;;-146.72;86.94
40994;BME280;26722;43.212;27.932;2023-10-31T12:06:05;65199.66;;;-146.72;87.84
40994;BME280;26722;43.212;27.932;2023-10-31T12:08:36;65193.31;;;-146.72;88.11
40994;BME280;26722;43.212;27.932;2023-10-31T12:11:04;65203.91;;;-146.72;88.55
40994;BME280;26722;43.212;27.932;2023-10-31T12:13:30;65218.72;;;-146.72;87.92
40994;BME280;26722;43.212;27.932;2023-10-31T12:15:55;65167.91;;;-146.72;87.99
40994;BME280;26722;43.212;27.932;2023-10-31T12:18:21;65184.84;;;-146.72;88.17
40994;BME280;26722;43.212;27.932;2023-10-31T12:20:52;65201.78;;;-146.72;88.28
40994;BME280;26722;43.212;27.932;2023-10-31T12:23:18;65193.31;;;-146.72;88.59